Time;durP1;ratioP1;P1;durP2;ratioP2;P2;SDS_P1;SDS_P2;PMS_P1;PMS_P2;Temp;Humidity;BMP_temperature;BMP_pressure;BME280_temperature;BME280_humidity;BME280_pressure;Samples;Min_cycle;Max_cycle;Signal;HPM_P1;HPM_P2
2022/03/09 00:00:06;;;;;;;9.05;3.75;;;9.50;91.40;;;;;;5136799;27;20031;-81
2022/03/09 00:02:32;;;;;;;11.32;3.78;;;9.50;91.50;;;;;;5134394;27;20028;-80
2022/03/09 00:04:57;;;;;;;8.23;3.45;;;9.50;91.50;;;;;;5134214;27;20122;-80
2022/03/09 00:07:23;;;;;;;8.38;4.07;;;9.50;91.80;;;;;;5134511;27;20101;-81
2022/03/09 00:09:49;;;;;;;8.13;3.60;;;9.50;91.50;;;;;;5134131;27;20031;-81
2022/03/09 00:12:15;;;;;;;10.88;3.78;;;9.50;91.50;;;;;;5137632;27;20007;-81
2022/03/09 00:14:40;;;;;;;5.20;3.17;;;9.50;91.50;;;;;;5116939;27;20368;-81
2022/03/09 00:17:06;;;;;;;6.40;3.70;;;9.50;91.90;;;;;;5115757;27;20058;-81
2022/03/09 00:19:32;;;;;;;12.15;4.20;;;9.50;91.50;;;;;;5134040;27;20027;-81
2022/03/09 00:21:58;;;;;;;8.25;3.78;;;9.50;91.70;;;;;;5133770;27;20103;-81
2022/03/09 00:24:24;;;;;;;10.05;4.00;;;9.50;91.50;;;;;;5133927;27;20043;-81
2022/03/09 00:26:49;;;;;;;8.45;3.90;;;9.50;92.10;;;;;;5115260;27;20023;-81
2022/03/09 00:29:15;;;;;;;11.88;4.03;;;9.50;92.30;;;;;;5133460;27;20023;-81
2022/03/09 00:31:41;;;;;;;7.40;3.92;;;9.40;91.70;;;;;;5115024;27;20411;-82
2022/03/09 00:34:06;;;;;;;8.32;3.50;;;9.40;92.10;;;;;;5133274;27;20398;-81
2022/03/09 00:36:32;;;;;;;7.57;3.80;;;9.40;91.80;;;;;;5133374;27;20023;-81
2022/03/09 00:38:58;;;;;;;6.57;3.20;;;9.40;91.70;;;;;;5135101;27;20027;-81
2022/03/09 00:41:23;;;;;;;8.98;3.55;;;9.40;92.20;;;;;;5114616;27;20019;-81
2022/03/09 00:43:49;;;;;;;8.15;3.20;;;9.40;91.80;;;;;;5132884;27;20035;-81
2022/03/09 00:46:15;;;;;;;7.90;3.38;;;9.40;91.60;;;;;;5132887;27;20071;-81
2022/03/09 00:48:40;;;;;;;7.78;3.20;;;9.40;91.50;;;;;;5133292;27;20488;-81
2022/03/09 00:51:06;;;;;;;5.88;2.92;;;9.40;91.60;;;;;;5135403;27;20582;-81
2022/03/09 00:53:32;;;;;;;5.95;3.10;;;9.40;92.10;;;;;;5132575;27;20054;-81
2022/03/09 00:55:58;;;;;;;8.65;3.20;;;9.40;91.80;;;;;;5133176;27;20023;-81
2022/03/09 00:58:23;;;;;;;9.02;3.47;;;9.40;91.60;;;;;;5132950;27;20030;-81
2022/03/09 01:00:49;;;;;;;6.45;3.17;;;9.40;92.00;;;;;;5132693;27;20023;-81
2022/03/09 01:03:15;;;;;;;11.90;3.95;;;9.40;91.60;;;;;;5133359;27;20023;-81
2022/03/09 01:05:41;;;;;;;8.55;3.33;;;9.40;91.70;;;;;;5114126;27;20499;-81
2022/03/09 01:08:07;;;;;;;6.50;3.10;;;9.30;92.00;;;;;;5132254;27;20027;-81
2022/03/09 01:10:33;;;;;;;8.10;3.25;;;9.30;91.70;;;;;;5132765;27;20023;-80
2022/03/09 01:12:59;;;;;;;9.32;3.42;;;9.40;91.70;;;;;;5135133;27;20030;-80
2022/03/09 01:15:25;;;;;;;7.65;2.90;;;9.30;91.90;;;;;;5132743;27;20031;-80
2022/03/09 01:17:51;;;;;;;5.40;2.97;;;9.40;91.90;;;;;;5134676;27;20356;-81
2022/03/09 01:20:16;;;;;;;10.55;3.47;;;9.40;91.70;;;;;;5132546;27;20023;-81
2022/03/09 01:22:42;;;;;;;6.57;3.42;;;9.40;91.60;;;;;;5132307;27;20510;-81
2022/03/09 01:25:08;;;;;;;6.93;3.53;;;9.40;91.80;;;;;;5132499;27;20403;-81
2022/03/09 01:27:35;;;;;;;8.00;3.50;;;9.30;92.00;;;;;;5132827;27;20035;-81
2022/03/09 01:30:00;;;;;;;7.00;3.63;;;9.30;92.00;;;;;;5134631;27;20098;-83
2022/03/09 01:32:26;;;;;;;8.63;4.10;;;9.30;92.50;;;;;;5132409;27;20098;-81
2022/03/09 01:34:51;;;;;;;11.50;4.18;;;9.30;91.80;;;;;;5132430;27;20487;-82
2022/03/09 01:37:17;;;;;;;10.00;3.50;;;9.30;92.70;;;;;;5131960;27;20467;-83
2022/03/09 01:39:43;;;;;;;8.63;3.95;;;9.30;92.50;;;;;;5114059;27;20027;-83
2022/03/09 01:42:09;;;;;;;8.82;4.10;;;9.20;92.10;;;;;;5134188;27;20030;-82
2022/03/09 01:44:34;;;;;;;7.80;3.60;;;9.30;91.90;;;;;;5130895;27;20126;-83
2022/03/09 01:47:00;;;;;;;7.20;3.22;;;9.30;92.30;;;;;;5132131;27;20399;-83
2022/03/09 01:49:26;;;;;;;6.45;3.20;;;9.30;92.20;;;;;;5132178;27;20033;-83
2022/03/09 01:51:55;;;;;;;8.73;3.72;;;9.20;91.90;;;;;;5132271;27;20026;-82
2022/03/09 01:54:21;;;;;;;7.40;3.65;;;9.20;91.80;;;;;;5132430;27;20069;-82
2022/03/09 01:56:48;;;;;;;7.43;3.30;;;9.20;92.10;;;;;;5133723;27;20031;-82
2022/03/09 01:59:15;;;;;;;4.30;2.75;;;9.20;91.70;;;;;;5131721;27;20403;-82
2022/03/09 02:01:41;;;;;;;6.78;3.17;;;9.20;92.60;;;;;;5113526;27;20054;-82
2022/03/09 02:04:07;;;;;;;7.32;3.08;;;9.20;91.90;;;;;;5132189;27;20038;-81
2022/03/09 02:06:34;;;;;;;6.40;2.85;;;9.20;92.00;;;;;;5132010;27;20023;-82
2022/03/09 02:11:47;;;;;;;7.45;3.55;;;9.20;92.00;;;;;;5134310;27;20104;-82
2022/03/09 02:14:36;;;;;;;4.85;3.22;;;9.20;92.00;;;;;;5115739;27;20034;-81
2022/03/09 02:17:07;;;;;;;6.85;3.22;;;9.20;91.90;;;;;;5131671;27;20029;-80
2022/03/09 02:19:33;;;;;;;6.30;3.20;;;9.20;92.10;;;;;;5129916;27;20037;-84
2022/03/09 02:22:16;;;;;;;7.88;2.88;;;9.20;92.10;;;;;;5130561;27;20075;-81
2022/03/09 02:24:41;;;;;;;5.40;2.70;;;9.20;92.10;;;;;;5097693;27;20055;-81
2022/03/09 02:27:07;;;;;;;5.55;2.60;;;9.20;92.10;;;;;;5133733;27;20102;-81
2022/03/09 02:29:33;;;;;;;5.07;2.70;;;9.20;92.10;;;;;;5132264;27;20023;-80
2022/03/09 02:32:02;;;;;;;7.03;2.90;;;9.20;92.30;;;;;;5131487;27;20027;-81
2022/03/09 02:34:29;;;;;;;6.90;2.97;;;9.20;92.30;;;;;;5113331;27;20065;-80
2022/03/09 02:36:55;;;;;;;9.95;3.83;;;9.20;92.10;;;;;;5113256;27;20506;-81
2022/03/09 02:39:21;;;;;;;6.88;2.95;;;9.20;91.90;;;;;;5131742;27;20057;-81
2022/03/09 02:41:46;;;;;;;6.68;3.42;;;9.20;92.10;;;;;;5131625;27;20062;-81
2022/03/09 02:44:12;;;;;;;8.52;3.13;;;9.20;92.40;;;;;;5131231;27;20030;-81
2022/03/09 02:46:38;;;;;;;6.60;3.17;;;9.20;92.50;;;;;;5113025;27;20023;-82
2022/03/09 02:49:03;;;;;;;5.63;3.17;;;9.20;92.60;;;;;;5131102;27;20042;-82
2022/03/09 02:51:29;;;;;;;6.03;3.20;;;9.20;92.80;;;;;;5131103;27;20522;-82
2022/03/09 02:53:55;;;;;;;7.28;3.75;;;9.20;92.00;;;;;;5133509;27;20031;-82
2022/03/09 02:56:20;;;;;;;8.00;3.78;;;9.20;91.90;;;;;;5131091;27;20027;-82
2022/03/09 02:58:46;;;;;;;8.60;3.38;;;9.20;92.20;;;;;;5112871;27;20027;-82
2022/03/09 03:01:13;;;;;;;5.40;3.25;;;9.20;92.40;;;;;;5129926;27;20454;-81
2022/03/09 03:03:39;;;;;;;5.85;3.03;;;9.20;92.20;;;;;;5130889;27;20172;-82
2022/03/09 03:06:06;;;;;;;5.28;2.90;;;9.10;92.60;;;;;;5113944;27;20031;-82
2022/03/09 03:08:33;;;;;;;5.97;3.45;;;9.10;92.60;;;;;;5129425;27;20027;-81
2022/03/09 03:10:59;;;;;;;5.07;3.47;;;9.00;92.20;;;;;;5130453;27;20019;-81
2022/03/09 03:13:25;;;;;;;6.32;3.25;;;9.00;92.20;;;;;;5132489;27;20030;-80
2022/03/09 03:15:50;;;;;;;8.57;3.88;;;9.00;92.40;;;;;;5130644;27;20027;-80
2022/03/09 03:18:16;;;;;;;7.72;4.10;;;9.00;92.70;;;;;;5130764;27;20019;-83
2022/03/09 03:20:41;;;;;;;9.02;3.97;;;9.00;92.40;;;;;;5132023;27;20027;-82
2022/03/09 03:23:07;;;;;;;7.32;4.03;;;9.00;92.50;;;;;;5130179;27;20019;-82
2022/03/09 03:25:33;;;;;;;7.38;3.80;;;9.00;92.50;;;;;;5130366;27;20102;-81
2022/03/09 03:27:58;;;;;;;8.15;3.65;;;9.00;92.20;;;;;;5130612;27;20106;-82
2022/03/09 03:30:24;;;;;;;7.15;3.60;;;8.90;92.30;;;;;;5129260;27;20119;-83
2022/03/09 03:32:50;;;;;;;4.68;2.80;;;8.90;92.60;;;;;;5132098;27;20031;-82
2022/03/09 03:35:15;;;;;;;6.70;3.28;;;8.90;93.00;;;;;;5129791;27;20016;-82
2022/03/09 03:37:41;;;;;;;5.05;3.10;;;8.90;92.90;;;;;;5111865;27;20027;-82
2022/03/09 03:40:07;;;;;;;7.07;3.15;;;8.90;92.90;;;;;;5110569;28;20396;-82
2022/03/09 03:42:33;;;;;;;5.78;3.50;;;9.00;92.60;;;;;;5130423;27;20035;-82
2022/03/09 03:44:59;;;;;;;5.95;3.17;;;8.90;92.40;;;;;;5132277;27;20054;-82
2022/03/09 03:47:24;;;;;;;5.32;2.92;;;8.90;92.50;;;;;;5111088;27;20023;-81
2022/03/09 03:49:50;;;;;;;6.78;3.33;;;8.90;92.70;;;;;;5130154;27;20023;-81
2022/03/09 03:52:16;;;;;;;7.55;3.42;;;8.90;93.00;;;;;;5111404;28;20145;-82
2022/03/09 03:54:41;;;;;;;5.65;3.05;;;8.90;92.90;;;;;;5130091;27;20156;-81
2022/03/09 03:57:07;;;;;;;5.20;3.30;;;8.90;93.20;;;;;;5132320;27;20114;-81
2022/03/09 03:59:33;;;;;;;7.32;3.38;;;8.90;92.80;;;;;;5130551;27;20495;-82
2022/03/09 04:01:59;;;;;;;5.10;3.15;;;8.90;93.20;;;;;;5129474;28;20065;-82
2022/03/09 04:04:25;;;;;;;6.88;3.55;;;8.90;93.40;;;;;;5129887;28;20035;-82
2022/03/09 04:06:50;;;;;;;6.18;3.20;;;8.90;92.80;;;;;;5130334;27;20058;-81
2022/03/09 04:09:16;;;;;;;4.97;2.78;;;8.90;93.20;;;;;;5093575;28;20055;-82
2022/03/09 04:11:42;;;;;;;5.22;3.00;;;8.90;93.20;;;;;;5131176;27;20020;-82
2022/03/09 04:14:08;;;;;;;4.15;2.35;;;8.90;93.00;;;;;;5132105;27;20400;-83
2022/03/09 04:16:33;;;;;;;5.93;2.92;;;8.90;93.20;;;;;;5129428;28;20425;-83
2022/03/09 04:18:59;;;;;;;3.53;2.42;;;8.90;93.20;;;;;;5109987;27;20031;-82
2022/03/09 04:21:25;;;;;;;6.85;2.80;;;8.90;93.50;;;;;;5129809;27;20024;-82
2022/03/09 04:23:50;;;;;;;4.50;3.30;;;8.90;93.60;;;;;;5132005;28;20037;-82
2022/03/09 04:26:16;;;;;;;5.55;3.10;;;8.90;93.20;;;;;;5111293;28;20364;-82
2022/03/09 04:28:42;;;;;;;7.30;3.60;;;9.00;93.60;;;;;;5111639;28;20119;-80
2022/03/09 04:31:07;;;;;;;5.93;3.22;;;8.90;93.30;;;;;;5129269;27;20356;-82
2022/03/09 04:33:33;;;;;;;6.68;3.03;;;9.00;93.20;;;;;;5111377;27;20036;-81
2022/03/09 04:35:58;;;;;;;7.20;2.92;;;9.00;93.40;;;;;;5131836;27;20426;-81
2022/03/09 04:38:24;;;;;;;5.00;2.95;;;9.00;93.20;;;;;;5111379;28;20118;-81
2022/03/09 04:40:50;;;;;;;7.50;2.70;;;9.00;93.10;;;;;;5111343;27;20047;-82
2022/03/09 04:43:15;;;;;;;5.53;2.90;;;9.00;93.30;;;;;;5133375;27;20050;-82
2022/03/09 04:45:41;;;;;;;4.22;2.90;;;9.00;93.30;;;;;;5132831;27;20534;-83
2022/03/09 04:48:06;;;;;;;6.00;2.50;;;9.00;93.30;;;;;;5116691;27;20027;-82
2022/03/09 04:50:32;;;;;;;6.50;3.00;;;9.00;93.60;;;;;;5133689;27;20081;-81
2022/03/09 04:52:58;;;;;;;7.78;3.10;;;9.00;93.10;;;;;;5133082;27;20023;-81
2022/03/09 04:55:24;;;;;;;4.88;2.78;;;9.00;93.40;;;;;;5133317;27;20019;-82
2022/03/09 04:57:49;;;;;;;5.40;2.67;;;9.00;93.80;;;;;;5131819;27;20015;-82
2022/03/09 05:00:15;;;;;;;6.05;2.47;;;9.00;93.50;;;;;;5133845;27;20030;-82
2022/03/09 05:02:41;;;;;;;5.88;2.45;;;9.10;93.50;;;;;;5134404;27;20026;-81
2022/03/09 05:05:07;;;;;;;5.30;2.70;;;9.10;93.70;;;;;;5132859;27;20042;-81
2022/03/09 05:07:32;;;;;;;4.95;2.42;;;9.10;93.70;;;;;;5132825;27;20011;-83
2022/03/09 05:09:59;;;;;;;5.95;2.65;;;9.10;93.80;;;;;;5133178;27;20058;-81
2022/03/09 05:12:25;;;;;;;4.78;2.63;;;9.10;93.50;;;;;;5135055;27;20023;-81
2022/03/09 05:14:50;;;;;;;5.13;2.85;;;9.10;93.40;;;;;;5134805;27;20038;-82
2022/03/09 05:17:16;;;;;;;5.03;2.53;;;9.10;93.40;;;;;;5113998;27;20441;-82
2022/03/09 05:19:41;;;;;;;6.20;2.80;;;9.10;93.70;;;;;;5132684;27;20538;-82
2022/03/09 05:22:07;;;;;;;6.57;2.55;;;9.10;93.40;;;;;;5114271;27;20027;-81
2022/03/09 05:24:33;;;;;;;5.07;2.28;;;9.10;93.40;;;;;;5132514;27;22140;-81
2022/03/09 05:26:58;;;;;;;4.95;2.50;;;9.10;93.30;;;;;;5134640;27;20019;-81
2022/03/09 05:29:24;;;;;;;6.80;2.83;;;9.10;93.20;;;;;;5113414;27;20056;-82
2022/03/09 05:31:49;;;;;;;6.70;2.70;;;9.10;93.30;;;;;;5114052;27;20399;-81
2022/03/09 05:34:15;;;;;;;7.68;3.00;;;9.10;93.50;;;;;;5132549;27;20029;-81
2022/03/09 05:36:42;;;;;;;8.43;3.13;;;9.10;93.90;;;;;;5131020;27;20815;-82
2022/03/09 05:39:08;;;;;;;5.72;2.50;;;9.10;93.70;;;;;;5134608;27;20027;-81
2022/03/09 05:41:33;;;;;;;4.63;2.33;;;9.10;93.50;;;;;;5132747;27;20024;-81
2022/03/09 05:43:59;;;;;;;5.93;2.70;;;9.10;93.20;;;;;;5113129;27;20031;-80
2022/03/09 05:46:25;;;;;;;5.15;2.20;;;9.10;93.30;;;;;;5131896;27;20055;-82
2022/03/09 05:48:51;;;;;;;5.97;2.65;;;9.10;93.50;;;;;;5132153;27;20031;-82
2022/03/09 05:51:17;;;;;;;6.18;2.80;;;9.10;93.30;;;;;;5133391;27;20027;-82
2022/03/09 05:53:42;;;;;;;6.05;2.85;;;9.10;93.30;;;;;;5132482;27;20031;-82
2022/03/09 05:56:08;;;;;;;9.00;2.83;;;9.10;93.70;;;;;;5131885;27;20023;-82
2022/03/09 05:58:33;;;;;;;6.47;2.63;;;9.10;93.40;;;;;;5131393;27;20047;-82
2022/03/09 06:00:59;;;;;;;6.55;2.58;;;9.10;93.50;;;;;;5131521;27;20506;-82
2022/03/09 06:03:25;;;;;;;7.18;3.00;;;9.20;93.30;;;;;;5131865;27;20177;-83
2022/03/09 06:05:50;;;;;;;7.70;3.30;;;9.20;93.30;;;;;;5134456;27;20526;-83
2022/03/09 06:08:16;;;;;;;6.90;3.30;;;9.20;93.50;;;;;;5131626;27;20030;-83
2022/03/09 06:10:42;;;;;;;6.35;3.03;;;9.20;93.30;;;;;;5113205;27;20059;-83
2022/03/09 06:13:08;;;;;;;6.95;3.10;;;9.20;93.40;;;;;;5113915;27;20498;-81
2022/03/09 06:15:33;;;;;;;4.47;2.60;;;9.20;93.40;;;;;;5132138;27;20023;-83
2022/03/09 06:18:00;;;;;;;5.85;3.10;;;9.20;93.40;;;;;;5133029;27;20487;-82
2022/03/09 06:20:25;;;;;;;5.75;2.88;;;9.20;93.30;;;;;;5112961;27;20399;-83
2022/03/09 06:22:52;;;;;;;8.10;2.65;;;9.20;93.80;;;;;;5131306;27;20027;-83
2022/03/09 06:25:18;;;;;;;9.57;3.05;;;9.30;94.00;;;;;;5131377;27;20066;-83
2022/03/09 06:27:45;;;;;;;7.53;2.65;;;9.20;93.30;;;;;;5112527;27;20499;-82
2022/03/09 06:30:12;;;;;;;8.45;2.78;;;9.30;93.60;;;;;;5133100;27;20540;-84
2022/03/09 06:32:38;;;;;;;4.07;2.05;;;9.30;93.50;;;;;;5132118;27;20027;-82
2022/03/09 06:35:05;;;;;;;5.40;2.30;;;9.30;93.40;;;;;;5131141;27;20549;-82
2022/03/09 06:37:31;;;;;;;6.35;1.92;;;9.30;93.50;;;;;;5130676;27;20059;-82
2022/03/09 06:39:58;;;;;;;5.78;2.25;;;9.30;93.40;;;;;;5131375;27;20095;-82
2022/03/09 06:42:24;;;;;;;6.40;2.33;;;9.30;93.30;;;;;;5131065;27;20019;-82
2022/03/09 06:44:50;;;;;;;7.43;2.03;;;9.30;93.50;;;;;;5131926;27;20047;-82
2022/03/09 06:47:16;;;;;;;3.47;1.80;;;9.30;93.30;;;;;;5130545;27;20395;-80
2022/03/09 06:49:42;;;;;;;6.28;1.70;;;9.30;93.30;;;;;;5131075;27;20035;-81
2022/03/09 06:52:08;;;;;;;5.22;1.88;;;9.30;93.30;;;;;;5130545;27;20019;-80
2022/03/09 06:54:33;;;;;;;6.40;1.67;;;9.30;93.10;;;;;;5130197;27;20028;-81
2022/03/09 06:56:59;;;;;;;4.85;1.92;;;9.30;93.20;;;;;;5132055;27;20050;-79
2022/03/09 06:59:25;;;;;;;4.68;2.03;;;9.30;93.30;;;;;;5131079;27;20499;-80
2022/03/09 07:01:51;;;;;;;4.88;2.05;;;9.30;93.30;;;;;;5127464;27;20499;-80
2022/03/09 07:04:16;;;;;;;5.05;2.33;;;9.30;93.40;;;;;;5134902;27;20031;-81
2022/03/09 07:06:42;;;;;;;6.47;1.77;;;9.40;93.30;;;;;;5147910;27;20388;-82
2022/03/09 07:09:07;;;;;;;12.20;1.90;;;9.40;93.30;;;;;;5133671;27;20031;-82
2022/03/09 07:11:33;;;;;;;5.65;1.88;;;9.40;93.50;;;;;;5140239;27;20559;-80
2022/03/09 07:13:59;;;;;;;4.65;1.42;;;9.40;93.40;;;;;;5148294;27;20023;-83
2022/03/09 07:16:25;;;;;;;6.35;1.60;;;9.40;93.10;;;;;;5138976;27;20407;-82
2022/03/09 07:18:50;;;;;;;5.30;1.67;;;9.50;93.10;;;;;;5146632;27;20019;-84
2022/03/09 07:21:16;;;;;;;8.45;1.75;;;9.50;93.00;;;;;;5131139;27;20367;-84
2022/03/09 07:23:42;;;;;;;6.20;1.80;;;9.50;93.40;;;;;;5143683;27;20037;-85
2022/03/09 07:26:08;;;;;;;4.00;1.30;;;9.50;93.10;;;;;;5135700;27;20027;-83
2022/03/09 07:28:34;;;;;;;5.43;1.85;;;9.40;93.00;;;;;;5121892;27;20027;-87
2022/03/09 07:31:00;;;;;;;3.97;1.63;;;9.50;93.10;;;;;;5145538;27;20039;-83
2022/03/09 07:33:25;;;;;;;5.28;1.70;;;9.50;93.20;;;;;;5137261;27;20084;-83
2022/03/09 07:35:51;;;;;;;3.88;2.13;;;9.50;93.20;;;;;;5145762;27;20023;-86
2022/03/09 07:38:17;;;;;;;5.70;1.88;;;9.60;93.10;;;;;;5134559;27;20019;-85
2022/03/09 07:40:43;;;;;;;5.07;1.67;;;9.60;93.20;;;;;;5139804;27;20098;-87
2022/03/09 07:43:10;;;;;;;5.03;1.88;;;9.60;93.10;;;;;;5141739;27;20099;-88
2022/03/09 07:45:36;;;;;;;5.53;1.90;;;9.70;93.10;;;;;;5113901;28;20050;-88
2022/03/09 07:48:02;;;;;;;5.90;1.92;;;9.70;93.00;;;;;;5147701;27;20030;-86
2022/03/09 07:50:27;;;;;;;5.28;1.88;;;9.80;93.10;;;;;;5134506;27;20058;-85
2022/03/09 07:52:53;;;;;;;6.03;1.80;;;9.80;92.90;;;;;;5141068;27;20402;-79
2022/03/09 07:55:19;;;;;;;5.85;1.90;;;9.90;93.20;;;;;;5142307;27;20419;-76
2022/03/09 07:57:45;;;;;;;6.43;1.92;;;10.00;93.10;;;;;;5137534;27;20031;-78
2022/03/09 08:00:11;;;;;;;6.55;1.88;;;10.00;92.90;;;;;;5128838;27;20019;-78
2022/03/09 08:02:37;;;;;;;5.30;1.55;;;10.00;92.80;;;;;;5135752;27;20103;-78
2022/03/09 08:05:03;;;;;;;3.10;1.60;;;10.10;92.80;;;;;;5122566;27;20411;-78
2022/03/09 08:07:30;;;;;;;4.88;1.63;;;10.20;92.80;;;;;;5140620;27;20102;-78
2022/03/09 08:09:56;;;;;;;4.80;1.45;;;10.20;92.70;;;;;;5117484;28;20031;-78
2022/03/09 08:12:22;;;;;;;3.90;1.60;;;10.20;92.40;;;;;;5129495;27;20391;-77
2022/03/09 08:14:48;;;;;;;6.38;1.50;;;10.20;92.40;;;;;;5116112;27;20121;-77
2022/03/09 08:17:13;;;;;;;5.50;1.67;;;10.30;92.30;;;;;;5143086;27;20023;-77
2022/03/09 08:19:39;;;;;;;4.43;1.60;;;10.30;92.20;;;;;;5157205;27;20080;-77
2022/03/09 08:22:04;;;;;;;5.15;1.50;;;10.30;92.20;;;;;;5137943;27;20016;-78
2022/03/09 08:24:32;;;;;;;4.00;1.45;;;10.40;92.40;;;;;;5133575;27;20130;-78
2022/03/09 08:26:58;;;;;;;4.53;1.67;;;10.40;92.00;;;;;;5141952;27;20007;-78
2022/03/09 08:29:23;;;;;;;3.20;1.48;;;10.40;92.00;;;;;;5144592;27;20063;-78
2022/03/09 08:31:49;;;;;;;6.68;1.70;;;10.40;91.80;;;;;;5123443;27;20118;-78
2022/03/09 08:34:15;;;;;;;5.82;1.42;;;10.40;91.80;;;;;;5141281;27;20027;-78
2022/03/09 08:36:41;;;;;;;4.60;1.77;;;10.40;91.70;;;;;;5101012;27;20061;-78
2022/03/09 08:39:06;;;;;;;2.92;1.50;;;10.30;91.70;;;;;;5143135;27;20486;-77
2022/03/09 08:41:32;;;;;;;4.45;1.40;;;10.30;91.60;;;;;;5144562;27;20027;-77
2022/03/09 08:43:57;;;;;;;6.07;1.40;;;10.30;91.60;;;;;;5144311;27;20035;-77
2022/03/09 08:46:23;;;;;;;4.88;1.10;;;10.40;91.60;;;;;;5142022;27;20507;-77
2022/03/09 08:48:49;;;;;;;6.72;1.63;;;10.50;91.20;;;;;;5150506;27;20023;-77
2022/03/09 08:51:17;;;;;;;3.85;1.20;;;10.60;91.50;;;;;;5141916;27;20498;-77
2022/03/09 08:53:43;;;;;;;5.25;1.30;;;10.70;91.30;;;;;;5147219;27;20066;-77
2022/03/09 08:56:10;;;;;;;4.32;1.35;;;10.80;90.90;;;;;;5120453;27;20483;-78
2022/03/09 08:58:36;;;;;;;3.58;1.20;;;10.90;90.70;;;;;;5122517;27;20142;-77
2022/03/09 09:01:02;;;;;;;4.45;1.10;;;10.90;90.20;;;;;;5133691;27;20448;-78
2022/03/09 09:03:28;;;;;;;5.97;1.20;;;10.90;90.20;;;;;;5133762;27;20047;-77
2022/03/09 09:05:53;;;;;;;4.40;1.15;;;10.90;89.20;;;;;;5135397;27;20031;-77
2022/03/09 09:08:20;;;;;;;4.65;1.33;;;10.90;89.50;;;;;;5115117;27;20444;-77
2022/03/09 09:10:46;;;;;;;4.60;1.70;;;10.90;89.40;;;;;;5133257;27;20380;-77
2022/03/09 09:13:12;;;;;;;3.63;1.50;;;11.00;90.20;;;;;;5133508;27;20065;-77
2022/03/09 09:15:38;;;;;;;4.50;1.50;;;11.00;89.20;;;;;;5133608;27;20028;-77
2022/03/09 09:18:06;;;;;;;4.85;1.42;;;11.10;87.90;;;;;;5131095;27;20030;-78
2022/03/09 09:20:33;;;;;;;3.95;1.40;;;11.00;87.10;;;;;;5133191;27;20532;-77
2022/03/09 09:22:58;;;;;;;3.67;1.40;;;11.10;87.80;;;;;;5133021;27;20696;-77
2022/03/09 09:25:26;;;;;;;4.40;1.90;;;11.20;87.30;;;;;;5133145;27;20131;-77
2022/03/09 09:27:53;;;;;;;2.83;1.60;;;11.20;86.70;;;;;;5114916;27;20027;-77
2022/03/09 09:30:20;;;;;;;4.47;1.50;;;11.20;87.30;;;;;;5115852;27;20034;-77
2022/03/09 09:32:46;;;;;;;3.25;1.60;;;11.30;86.90;;;;;;5132703;27;20098;-77
2022/03/09 09:35:13;;;;;;;3.38;1.50;;;11.40;85.90;;;;;;5132684;27;20073;-77
2022/03/09 09:37:39;;;;;;;4.03;1.30;;;11.20;85.20;;;;;;5132749;27;20071;-77
2022/03/09 09:40:09;;;;;;;3.88;1.52;;;11.20;86.10;;;;;;5133049;27;20015;-78
2022/03/09 09:42:35;;;;;;;3.78;1.70;;;11.10;86.20;;;;;;5132893;27;20498;-77
2022/03/09 09:45:02;;;;;;;4.03;1.50;;;11.10;86.40;;;;;;5116110;27;20636;-77
2022/03/09 09:47:29;;;;;;;3.17;1.50;;;11.20;87.60;;;;;;5132806;27;20027;-77
2022/03/09 09:49:58;;;;;;;3.45;1.73;;;11.20;86.20;;;;;;5132525;27;20030;-77
2022/03/09 09:52:28;;;;;;;5.13;1.73;;;11.20;86.20;;;;;;5132623;27;20019;-76
2022/03/09 09:54:56;;;;;;;5.15;1.75;;;11.20;86.00;;;;;;5132841;27;20026;-77
2022/03/09 09:57:23;;;;;;;5.68;2.20;;;11.20;86.40;;;;;;5132888;27;20023;-77
2022/03/09 09:59:51;;;;;;;4.95;2.20;;;11.10;87.10;;;;;;5132735;27;20019;-77
2022/03/09 10:02:17;;;;;;;5.95;2.55;;;11.10;86.20;;;;;;5132580;27;20072;-77
2022/03/09 10:04:44;;;;;;;5.03;2.25;;;11.00;86.90;;;;;;5131982;27;20035;-78
2022/03/09 10:07:10;;;;;;;4.70;2.17;;;11.00;85.80;;;;;;5114115;27;20511;-77
2022/03/09 10:09:37;;;;;;;6.15;2.10;;;11.00;86.00;;;;;;5116180;27;20028;-77
2022/03/09 10:12:06;;;;;;;4.63;2.22;;;11.10;85.70;;;;;;5134464;27;20083;-78
2022/03/09 10:14:53;;;;;;;3.70;2.13;;;11.10;85.80;;;;;;5114073;27;20027;-77
2022/03/09 10:17:27;;;;;;;4.95;2.20;;;11.10;85.60;;;;;;5132347;27;20015;-77
2022/03/09 10:20:13;;;;;;;3.53;2.05;;;11.10;85.60;;;;;;5131931;27;20079;-77
2022/03/09 10:22:41;;;;;;;4.47;2.10;;;11.20;86.00;;;;;;5131716;27;20034;-77
2022/03/09 10:25:10;;;;;;;4.25;2.33;;;11.20;86.00;;;;;;5113795;27;20478;-77
2022/03/09 10:27:45;;;;;;;6.13;2.22;;;11.30;87.00;;;;;;5116020;27;20032;-77
2022/03/09 10:30:19;;;;;;;4.05;2.35;;;11.40;85.90;;;;;;5130155;27;20024;-77
2022/03/09 10:32:52;;;;;;;4.57;2.20;;;11.40;84.80;;;;;;5133330;27;20065;-77
2022/03/09 10:35:27;;;;;;;4.00;2.10;;;11.30;84.90;;;;;;5113565;27;20022;-77
2022/03/09 10:37:52;;;;;;;3.67;1.98;;;11.30;85.40;;;;;;5113351;27;20023;-77
2022/03/09 10:40:20;;;;;;;5.43;2.30;;;11.30;85.00;;;;;;5112733;27;20122;-77
2022/03/09 10:42:47;;;;;;;3.97;2.22;;;11.30;85.60;;;;;;5131820;27;20020;-76
2022/03/09 10:45:17;;;;;;;6.80;2.33;;;11.40;86.00;;;;;;5132990;27;20430;-77
2022/03/09 10:47:45;;;;;;;5.68;2.58;;;11.50;85.00;;;;;;5132454;27;20118;-77
2022/03/09 10:50:25;;;;;;;7.78;2.25;;;11.40;85.60;;;;;;5130066;27;20102;-77
2022/03/09 10:52:55;;;;;;;5.03;2.00;;;11.40;84.70;;;;;;5112907;27;20026;-77
2022/03/09 10:55:33;;;;;;;4.45;2.08;;;11.40;85.60;;;;;;5131496;27;20019;-77
2022/03/09 10:58:22;;;;;;;6.30;2.33;;;11.50;85.70;;;;;;5112907;27;20452;-77
2022/03/09 11:00:50;;;;;;;6.43;2.13;;;11.50;85.30;;;;;;5116716;27;20012;-77
2022/03/09 11:03:22;;;;;;;5.78;2.28;;;11.60;85.00;;;;;;5113853;27;20027;-77
2022/03/09 11:05:54;;;;;;;6.07;2.45;;;11.60;84.90;;;;;;5131245;27;20023;-77
2022/03/09 11:08:28;;;;;;;4.57;2.03;;;11.60;83.80;;;;;;5112874;27;20061;-77
2022/03/09 11:10:55;;;;;;;5.72;2.00;;;11.60;83.80;;;;;;5130955;27;20088;-77
2022/03/09 11:13:22;;;;;;;7.90;2.53;;;11.50;83.90;;;;;;5112868;27;20441;-77
2022/03/09 11:15:48;;;;;;;7.20;2.30;;;11.60;84.50;;;;;;5131284;27;20027;-77
2022/03/09 11:18:18;;;;;;;6.55;2.10;;;11.60;84.80;;;;;;5132079;27;20030;-77
2022/03/09 11:20:44;;;;;;;7.75;2.30;;;11.70;85.00;;;;;;5127982;27;20027;-78
2022/03/09 11:23:12;;;;;;;6.57;2.25;;;11.80;84.60;;;;;;5126133;27;20463;-77
2022/03/09 11:25:38;;;;;;;6.75;2.15;;;11.90;85.00;;;;;;5131079;27;20038;-77
2022/03/09 11:28:05;;;;;;;6.82;2.17;;;12.00;83.80;;;;;;5129686;27;20011;-78
2022/03/09 11:30:36;;;;;;;5.13;2.30;;;12.10;83.70;;;;;;5130742;27;20479;-77
2022/03/09 11:33:03;;;;;;;4.40;1.70;;;12.10;82.50;;;;;;5133285;27;20083;-78
2022/03/09 11:35:34;;;;;;;5.45;2.00;;;12.30;83.10;;;;;;5130921;27;20026;-77
2022/03/09 11:38:00;;;;;;;5.95;2.50;;;12.40;83.10;;;;;;5131095;28;20026;-77
2022/03/09 11:40:26;;;;;;;5.03;2.15;;;12.50;82.50;;;;;;5131036;27;20696;-77
2022/03/09 11:42:52;;;;;;;4.85;1.90;;;12.60;81.60;;;;;;5112608;28;20116;-77
2022/03/09 11:45:20;;;;;;;6.10;2.20;;;12.80;79.90;;;;;;5131380;27;20062;-77
2022/03/09 11:48:03;;;;;;;4.25;2.05;;;12.90;79.60;;;;;;5132495;28;20487;-77
2022/03/09 11:50:34;;;;;;;4.65;2.10;;;13.00;80.20;;;;;;5112479;27;20364;-77
2022/03/09 11:53:03;;;;;;;6.05;1.70;;;13.10;79.30;;;;;;5134097;27;20586;-76
2022/03/09 11:55:29;;;;;;;7.45;2.25;;;13.10;77.80;;;;;;5134859;27;20019;-77
2022/03/09 11:57:55;;;;;;;4.88;1.70;;;13.20;77.00;;;;;;5133148;27;20031;-77
2022/03/09 12:00:22;;;;;;;2.97;1.50;;;13.30;75.80;;;;;;5116004;27;20015;-76
2022/03/09 12:02:56;;;;;;;4.03;1.55;;;13.30;73.90;;;;;;5134260;27;20035;-75
2022/03/09 12:05:25;;;;;;;2.67;1.55;;;13.30;73.60;;;;;;5134592;27;20031;-77
2022/03/09 12:07:53;;;;;;;3.92;1.50;;;13.40;74.30;;;;;;5133087;27;20030;-75
2022/03/09 12:10:39;;;;;;;3.38;1.50;;;13.50;74.20;;;;;;5134668;27;20019;-75
2022/03/09 12:13:15;;;;;;;4.07;1.60;;;13.60;73.70;;;;;;5134555;27;20038;-76
2022/03/09 12:16:02;;;;;;;6.32;1.48;;;13.70;74.00;;;;;;5118483;27;20018;-76
2022/03/09 12:18:41;;;;;;;2.83;1.27;;;13.80;74.30;;;;;;5134559;27;20519;-76
2022/03/09 12:21:09;;;;;;;2.55;1.15;;;13.80;73.90;;;;;;5132082;27;20072;-76
2022/03/09 12:23:56;;;;;;;2.78;1.13;;;13.90;73.30;;;;;;5134930;27;20441;-76
2022/03/09 12:26:37;;;;;;;2.92;0.90;;;14.00;72.60;;;;;;5133799;27;20031;-75
2022/03/09 12:29:03;;;;;;;3.10;1.02;;;14.10;71.90;;;;;;5113938;27;20106;-76
2022/03/09 12:31:30;;;;;;;3.35;1.08;;;14.30;71.60;;;;;;5133391;27;20118;-76
2022/03/09 12:33:56;;;;;;;3.00;1.00;;;14.40;70.30;;;;;;5134022;27;20023;-76
2022/03/09 12:36:24;;;;;;;4.00;1.05;;;14.50;69.40;;;;;;5134090;27;20475;-76
2022/03/09 12:38:51;;;;;;;2.30;0.90;;;14.50;69.70;;;;;;5133776;27;20019;-76
2022/03/09 12:41:28;;;;;;;2.33;1.10;;;14.60;68.60;;;;;;5133602;27;20019;-76
2022/03/09 12:44:02;;;;;;;2.55;1.10;;;14.60;68.50;;;;;;5133364;27;20038;-76
2022/03/09 12:46:29;;;;;;;2.33;0.90;;;14.70;68.10;;;;;;5130806;28;20101;-76
2022/03/09 12:49:07;;;;;;;3.40;1.10;;;14.80;68.30;;;;;;5113937;28;20023;-76
2022/03/09 12:51:34;;;;;;;1.90;0.88;;;14.90;69.80;;;;;;5132701;27;20099;-77
2022/03/09 12:54:00;;;;;;;3.88;0.82;;;15.00;66.80;;;;;;5134867;28;20076;-76